Tropical Cyclones
[Index]
Main Index Home Page Stock Weather Photos Extreme Storms Discussion Storm News and Storm Chasing Reports Tropical Cyclones / Hurricanes / Typhoons Weather Data and Links Wild Fires / Bushfires Weather Observation Techniques Weather Picture Catalogue Tornado Pictures and Reports Stock Video Footage and DVDs for sale
Season 2001-2002 Tropical Cyclone CHRIS Track Map
Season 2001-2002 Summaries: [BoM-AU] [JTWC-AU] [JTWC-SIO] [JTWC-SPAC] [JTWC-SH]
<<- Previous TC | BoM 2001-2002 Season | Next TC ->>

click for intensity scale information  Lat/long Grid: Show Hide

 Date Labels: Show Hide

Bureau of Meteorology Tropical Cyclone Data

Name: CHRIS
Number: 854 / 200102_04

02 Feb 2002 04:00 UTC to 07 Feb 2002 04:00 UTC

    date/time    lat    long    hPa   cat  kts
2002-02-02 04   13.1   120.8   1003         25          
2002-02-02 10   13.5   122.2   1001         25          
2002-02-02 16   14.4   122.0    998         30          
2002-02-02 22   15.0   121.6    995    1    35          
2002-02-03 01   15.3   121.4    992    1    40          
2002-02-03 04   15.5   121.2    990    1    40          
2002-02-03 07   15.7   121.1    988    1    45          
2002-02-03 10   15.9   120.9    985    2    50          
2002-02-03 13   16.0   120.8    980    2    55          
2002-02-03 16   16.1   120.8    975    2    60          
2002-02-03 19   16.2   120.9    975    2    60          
2002-02-03 22   16.4   121.0    970    3    65          
2002-02-04 01   16.6   121.1    965    3    70          
2002-02-04 04   16.9   121.0    960    3    75          
2002-02-04 07   17.3   121.0    955    4    80          
2002-02-04 10   17.6   120.9    950    4    85          
2002-02-04 13   17.8   120.6    945    4    90          
2002-02-04 16   17.9   120.4    940    4    95          
2002-02-04 19   18.0   120.3    935    4    95          
2002-02-04 22   18.1   120.2    930    4    100          
2002-02-05 01   18.2   120.2    925    5    105          
2002-02-05 04   18.4   120.3    925    5    105          
2002-02-05 07   18.7   120.3    920    5    105          
2002-02-05 10   18.9   120.4    920    5    105          
2002-02-05 13   19.2   120.4    915    5    110          
2002-02-05 16   19.5   120.3    915    5    110          
2002-02-05 19   19.8   120.1    915    5    110          
2002-02-05 22   20.1   120.0    920    5    105          
2002-02-06 01   20.4   119.8    940    4    95          
2002-02-06 04   20.8   119.7    960    3    95          
2002-02-06 07   21.2   119.6    975    2    60          
2002-02-06 10   21.6   119.6    985    2    50          
2002-02-06 16   22.0   119.3    998         30          
2002-02-06 22   22.1   119.1   1000         25          
2002-02-07 04   22.3   119.0   1002         25          
Winds are 10-min average.

Tropical cyclone tracks developed by Michael Bath using data from the Bureau of Meteorology and Google Maps.


[Australian Severe Weather index] [Copyright Notice] [Email Contacts] [Search This Site] [Privacy Policy]
Document: tropical_cyclone_chris.htm Updated: 29 June 2017